Time;durP1;ratioP1;P1;durP2;ratioP2;P2;SDS_P1;SDS_P2;PMS_P1;PMS_P2;Temp;Humidity;BMP_temperature;BMP_pressure;BME280_temperature;BME280_humidity;BME280_pressure;Samples;Min_cycle;Max_cycle;Signal;HPM_P1;HPM_P2
2021/12/12 00:01:23;;;;;;;121.00;58.65;;;-1.40;99.90;;;;;;5070878;27;20355;-78
2021/12/12 00:03:53;;;;;;;110.97;52.67;;;-1.50;99.90;;;;;;5072145;28;20359;-78
2021/12/12 00:06:29;;;;;;;122.18;55.40;;;-1.50;99.90;;;;;;5072106;28;20031;-78
2021/12/12 00:08:59;;;;;;;128.48;54.78;;;-1.40;99.90;;;;;;5072062;28;20092;-79
2021/12/12 00:11:28;;;;;;;114.53;53.42;;;-1.50;99.90;;;;;;5070783;28;20479;-78
2021/12/12 00:13:59;;;;;;;122.30;53.95;;;-1.40;99.90;;;;;;5070561;27;20061;-78
2021/12/12 00:16:25;;;;;;;120.45;56.47;;;-1.40;99.90;;;;;;5070755;28;20021;-78
2021/12/12 00:18:50;;;;;;;114.30;53.20;;;-1.40;99.90;;;;;;5071824;28;20035;-78
2021/12/12 00:21:18;;;;;;;130.55;58.28;;;-1.40;99.90;;;;;;5072057;28;20021;-78
2021/12/12 00:23:44;;;;;;;125.15;57.05;;;-1.40;99.90;;;;;;5070690;28;20047;-78
2021/12/12 00:26:10;;;;;;;122.18;56.40;;;-1.40;99.90;;;;;;5071834;28;20489;-78
2021/12/12 00:28:35;;;;;;;107.20;51.45;;;-1.40;99.90;;;;;;5071900;28;20056;-78
2021/12/12 00:31:08;;;;;;;111.82;50.10;;;-1.50;99.90;;;;;;5072290;28;20021;-78
2021/12/12 00:33:35;;;;;;;;;;;-1.40;99.90;;;;;;5071464;28;20024;-78
2021/12/12 00:36:01;;;;;;;107.28;48.13;;;-1.40;99.90;;;;;;5071897;28;19971;-79
2021/12/12 00:38:30;;;;;;;105.97;47.92;;;-1.40;99.90;;;;;;5071625;28;20484;-78
2021/12/12 00:41:00;;;;;;;99.00;45.70;;;-1.40;99.90;;;;;;5070384;28;20031;-79
2021/12/12 00:43:34;;;;;;;104.65;49.30;;;-1.40;99.90;;;;;;5071515;28;20064;-78
2021/12/12 00:46:06;;;;;;;114.82;51.78;;;-1.50;99.90;;;;;;5070325;28;20526;-78
2021/12/12 00:48:34;;;;;;;110.93;46.38;;;-1.50;99.90;;;;;;5071384;28;20020;-78
2021/12/12 00:51:03;;;;;;;107.10;49.47;;;-1.50;99.90;;;;;;5071389;28;20029;-78
2021/12/12 00:53:30;;;;;;;109.93;52.10;;;-1.50;99.90;;;;;;5070025;27;20219;-78
2021/12/12 00:55:55;;;;;;;109.32;52.30;;;-1.40;99.90;;;;;;5071235;28;20025;-78
2021/12/12 00:58:22;;;;;;;120.55;53.17;;;-1.40;99.90;;;;;;5071225;28;20031;-78
2021/12/12 01:01:03;;;;;;;112.18;52.78;;;-1.40;99.90;;;;;;5069889;27;20113;-78
2021/12/12 01:03:38;;;;;;;126.47;58.10;;;-1.40;99.90;;;;;;5069933;28;20591;-78
2021/12/12 01:06:06;;;;;;;126.88;58.15;;;-1.40;99.90;;;;;;5069978;27;20052;-78
2021/12/12 01:08:33;;;;;;;124.18;59.42;;;-1.50;99.90;;;;;;5069755;27;20061;-78
2021/12/12 01:11:17;;;;;;;128.88;62.05;;;-1.50;99.90;;;;;;5069683;27;20060;-78
2021/12/12 01:13:45;;;;;;;134.88;61.13;;;-1.50;99.90;;;;;;5070940;28;20036;-78
2021/12/12 01:16:22;;;;;;;147.55;63.38;;;-1.50;99.90;;;;;;5071038;28;20028;-78
2021/12/12 01:18:56;;;;;;;128.52;62.53;;;-1.50;99.90;;;;;;5070916;28;20021;-78
2021/12/12 01:21:30;;;;;;;135.70;61.30;;;-1.50;99.90;;;;;;5070951;28;20105;-78
2021/12/12 01:24:05;;;;;;;138.52;61.05;;;-1.50;99.90;;;;;;5069645;27;20021;-78
2021/12/12 01:26:31;;;;;;;128.98;60.58;;;-1.50;99.90;;;;;;5069610;28;20381;-78
2021/12/12 01:29:00;;;;;;;177.18;83.05;;;-1.40;99.90;;;;;;5070875;28;20035;-78
2021/12/12 01:31:32;;;;;;;154.00;68.32;;;-1.50;99.90;;;;;;5069470;28;20462;-78
2021/12/12 01:34:09;;;;;;;138.18;64.20;;;-1.50;99.90;;;;;;5070610;28;20023;-78
2021/12/12 01:36:49;;;;;;;143.07;62.03;;;-1.50;99.90;;;;;;5069722;27;20033;-78
2021/12/12 01:39:19;;;;;;;146.90;62.85;;;-1.60;99.90;;;;;;5070570;28;20020;-78
2021/12/12 01:41:47;;;;;;;133.90;61.70;;;-1.50;99.90;;;;;;5069345;28;20016;-78
2021/12/12 01:44:45;;;;;;;133.13;61.33;;;-1.50;99.90;;;;;;5069241;28;20033;-78
2021/12/12 01:47:14;;;;;;;145.68;64.97;;;-1.50;99.90;;;;;;5077660;28;20040;-78
2021/12/12 01:49:45;;;;;;;143.05;62.78;;;-1.50;99.90;;;;;;5069160;28;20020;-78
2021/12/12 01:52:14;;;;;;;136.10;64.32;;;-1.50;99.90;;;;;;5069327;28;20069;-78
2021/12/12 01:54:44;;;;;;;145.95;68.43;;;-1.50;99.90;;;;;;5070261;28;20040;-78
2021/12/12 01:57:17;;;;;;;145.98;67.65;;;-1.50;99.90;;;;;;5069043;27;20024;-78
2021/12/12 01:59:45;;;;;;;144.02;64.90;;;-1.50;99.90;;;;;;5070302;28;20020;-78
2021/12/12 02:02:25;;;;;;;144.70;65.15;;;-1.40;99.90;;;;;;5070292;28;20037;-78
2021/12/12 02:04:55;;;;;;;141.40;63.42;;;-1.40;99.90;;;;;;5069011;28;20028;-78
2021/12/12 02:07:31;;;;;;;146.07;62.80;;;-1.50;99.90;;;;;;5068456;27;20031;-78
2021/12/12 02:10:01;;;;;;;148.50;64.35;;;-1.50;99.90;;;;;;5068929;28;20051;-78
2021/12/12 02:12:27;;;;;;;141.43;65.75;;;-1.50;99.90;;;;;;5068946;28;20059;-78
2021/12/12 02:14:53;;;;;;;133.52;64.43;;;-1.50;99.90;;;;;;5068696;28;20060;-78
2021/12/12 02:17:35;;;;;;;143.10;66.25;;;-1.50;99.90;;;;;;5068857;28;20556;-78
2021/12/12 02:20:16;;;;;;;145.48;66.20;;;-1.50;99.90;;;;;;5068836;28;20429;-78
2021/12/12 02:36:19;;;;;;;154.25;67.72;;;-1.50;99.90;;;;;;5070151;28;20051;-78
2021/12/12 02:38:46;;;;;;;162.02;69.93;;;-1.50;99.90;;;;;;5068656;28;20021;-78
2021/12/12 02:41:15;;;;;;;154.23;66.60;;;-1.50;99.90;;;;;;5069785;28;20515;-79
2021/12/12 02:43:46;;;;;;;138.23;62.00;;;-1.50;99.90;;;;;;5070049;28;20394;-78
2021/12/12 02:46:16;;;;;;;139.02;65.20;;;-1.50;99.90;;;;;;5070001;28;20025;-78
2021/12/12 02:48:52;;;;;;;147.70;67.72;;;-1.60;99.90;;;;;;5069693;28;20020;-79
2021/12/12 02:51:18;;;;;;;150.30;65.10;;;-1.60;99.90;;;;;;5069953;28;20025;-79
2021/12/12 02:53:52;;;;;;;146.07;65.10;;;-1.60;99.90;;;;;;5068701;28;20077;-79
2021/12/12 02:56:41;;;;;;;140.82;64.28;;;-1.60;99.90;;;;;;5068413;28;20496;-79
2021/12/12 02:59:10;;;;;;;143.90;65.25;;;-1.60;99.90;;;;;;5068190;28;20077;-78
2021/12/12 03:01:43;;;;;;;135.07;62.47;;;-1.60;99.90;;;;;;5068225;28;20580;-78
2021/12/12 03:04:10;;;;;;;132.70;62.95;;;-1.60;99.90;;;;;;5069952;28;20021;-78
2021/12/12 03:06:40;;;;;;;136.32;62.15;;;-1.60;99.90;;;;;;5069353;28;20382;-78
2021/12/12 03:09:21;;;;;;;131.73;63.85;;;-1.60;99.90;;;;;;5070289;28;20023;-78
2021/12/12 03:11:50;;;;;;;138.27;62.95;;;-1.60;99.90;;;;;;5068547;28;20123;-78
2021/12/12 03:14:17;;;;;;;139.95;63.90;;;-1.60;99.90;;;;;;5069714;28;20064;-78
2021/12/12 03:16:43;;;;;;;139.85;67.15;;;-1.60;99.90;;;;;;5068425;28;20020;-78
2021/12/12 03:19:09;;;;;;;144.75;60.05;;;-1.60;99.90;;;;;;5070724;28;20024;-78
2021/12/12 03:21:42;;;;;;;138.43;65.50;;;-1.60;99.90;;;;;;5071736;27;20029;-79
2021/12/12 03:24:27;;;;;;;152.93;66.00;;;-1.60;99.90;;;;;;5071949;28;20027;-78
2021/12/12 03:26:56;;;;;;;135.98;60.67;;;-1.60;99.90;;;;;;5071946;28;20378;-78
2021/12/12 03:29:23;;;;;;;155.27;67.88;;;-1.60;99.90;;;;;;5072043;28;20441;-78
2021/12/12 03:31:57;;;;;;;249.00;121.78;;;-1.60;99.90;;;;;;5071792;28;20020;-78
2021/12/12 03:34:25;;;;;;;217.60;91.25;;;-1.60;99.90;;;;;;5071490;28;20028;-78
2021/12/12 03:36:52;;;;;;;146.63;65.25;;;-1.60;99.90;;;;;;5072598;28;20466;-78
2021/12/12 03:39:28;;;;;;;119.95;60.00;;;-1.70;99.90;;;;;;5071249;27;20024;-78
2021/12/12 03:41:57;;;;;;;126.63;56.53;;;-1.70;99.90;;;;;;5071319;27;20027;-78
2021/12/12 03:44:25;;;;;;;143.43;61.85;;;-1.70;99.90;;;;;;5072717;28;20021;-78
2021/12/12 03:46:55;;;;;;;127.18;61.80;;;-1.60;99.90;;;;;;5071174;28;20035;-78
2021/12/12 03:49:22;;;;;;;122.47;61.13;;;-1.60;99.90;;;;;;5071063;28;20025;-79
2021/12/12 03:51:49;;;;;;;128.90;56.40;;;-1.60;99.90;;;;;;5072574;28;20024;-79
2021/12/12 03:54:15;;;;;;;134.55;60.80;;;-1.60;99.90;;;;;;5071113;28;20039;-78
2021/12/12 03:56:42;;;;;;;130.77;56.70;;;-1.60;99.90;;;;;;5071210;28;20039;-79
2021/12/12 03:59:09;;;;;;;145.50;66.25;;;-1.60;99.90;;;;;;5070993;27;20035;-78
2021/12/12 04:01:39;;;;;;;155.57;71.15;;;-1.60;99.90;;;;;;5072869;28;20020;-78
2021/12/12 04:04:10;;;;;;;138.80;63.92;;;-1.60;99.90;;;;;;5072837;28;20088;-78
2021/12/12 04:06:35;;;;;;;154.55;74.30;;;-1.60;99.90;;;;;;5071526;28;20047;-78
2021/12/12 04:09:03;;;;;;;142.10;69.07;;;-1.60;99.90;;;;;;5071561;28;20477;-78
2021/12/12 04:11:34;;;;;;;144.98;64.82;;;-1.60;99.90;;;;;;5071728;28;20023;-78
2021/12/12 04:14:03;;;;;;;133.73;62.70;;;-1.70;99.90;;;;;;5071852;28;20479;-78
2021/12/12 04:16:31;;;;;;;132.50;59.78;;;-1.70;99.90;;;;;;5071486;28;20385;-78
2021/12/12 04:18:57;;;;;;;131.77;62.17;;;-1.60;99.90;;;;;;5071152;28;20385;-79
2021/12/12 04:21:27;;;;;;;118.82;57.95;;;-1.60;99.90;;;;;;5071927;27;20024;-78
2021/12/12 04:23:54;;;;;;;119.18;54.33;;;-1.70;99.90;;;;;;5070637;28;20024;-78
2021/12/12 04:26:36;;;;;;;135.18;58.88;;;-1.70;99.90;;;;;;5072094;28;20035;-78
2021/12/12 04:29:04;;;;;;;122.25;58.63;;;-1.70;99.90;;;;;;5070319;28;20028;-78
2021/12/12 04:31:31;;;;;;;114.95;54.58;;;-1.70;99.90;;;;;;5070528;28;20120;-78
2021/12/12 04:33:59;;;;;;;129.18;58.13;;;-1.60;99.90;;;;;;5071900;28;20036;-78
2021/12/12 04:36:31;;;;;;;201.70;87.65;;;-1.70;99.90;;;;;;5071010;28;20035;-78
2021/12/12 04:39:05;;;;;;;454.63;185.32;;;-1.70;99.90;;;;;;5071000;28;20028;-78
2021/12/12 04:41:31;;;;;;;299.85;118.63;;;-1.70;99.90;;;;;;5053579;28;20470;-78
2021/12/12 04:43:56;;;;;;;149.63;65.03;;;-1.70;99.90;;;;;;5050403;27;20033;-78
2021/12/12 04:46:36;;;;;;;126.38;56.92;;;-1.70;99.90;;;;;;5050406;28;20009;-78
2021/12/12 04:51:57;;;;;;;110.90;54.75;;;-1.70;99.90;;;;;;5051464;28;20028;-77
2021/12/12 04:55:09;;;;;;;133.02;57.08;;;-1.70;99.90;;;;;;5051488;28;20057;-78
2021/12/12 04:57:42;;;;;;;124.45;58.25;;;-1.70;99.90;;;;;;5046559;28;20431;-78
2021/12/12 05:00:19;;;;;;;139.45;60.20;;;-1.70;99.90;;;;;;5051763;28;20024;-78
2021/12/12 05:02:56;;;;;;;131.63;58.47;;;-1.60;99.90;;;;;;5051690;27;20344;-78
2021/12/12 05:05:29;;;;;;;138.60;59.70;;;-1.60;99.90;;;;;;5051653;28;20044;-78
2021/12/12 05:08:08;;;;;;;135.98;58.17;;;-1.60;99.90;;;;;;5050233;28;20137;-78
2021/12/12 05:10:42;;;;;;;138.95;64.50;;;-1.60;99.90;;;;;;5049783;27;20025;-78
2021/12/12 05:13:17;;;;;;;126.43;57.10;;;-1.60;99.90;;;;;;5049966;28;20497;-78
2021/12/12 05:15:52;;;;;;;110.78;52.80;;;-1.60;99.90;;;;;;5049945;27;20037;-78
2021/12/12 05:18:29;;;;;;;104.93;49.38;;;-1.70;99.90;;;;;;5051427;28;20028;-78
2021/12/12 05:21:06;;;;;;;112.40;51.22;;;-1.60;99.90;;;;;;5050905;28;20066;-79
2021/12/12 05:23:32;;;;;;;96.88;45.97;;;-1.60;99.90;;;;;;5050980;28;20028;-78
2021/12/12 05:26:04;;;;;;;101.47;49.13;;;-1.60;99.90;;;;;;5049653;28;20027;-78
2021/12/12 05:28:38;;;;;;;98.03;46.90;;;-1.60;99.90;;;;;;5049686;28;20101;-78
2021/12/12 05:31:07;;;;;;;106.97;50.85;;;-1.60;99.90;;;;;;5049728;28;20017;-78
2021/12/12 05:33:34;;;;;;;108.05;49.08;;;-1.50;99.90;;;;;;5050545;28;20056;-78
2021/12/12 05:36:00;;;;;;;98.78;47.25;;;-1.60;99.90;;;;;;5049476;28;20491;-78
2021/12/12 05:38:29;;;;;;;97.57;45.60;;;-1.60;99.90;;;;;;5050631;28;20045;-78
2021/12/12 05:40:55;;;;;;;95.55;45.00;;;-1.60;99.90;;;;;;5049990;28;20021;-78
2021/12/12 05:43:21;;;;;;;95.72;46.47;;;-1.60;99.90;;;;;;5050254;28;20486;-78
2021/12/12 05:45:50;;;;;;;99.47;43.10;;;-1.60;99.90;;;;;;5050493;28;20028;-78
2021/12/12 05:48:16;;;;;;;103.95;47.75;;;-1.60;99.90;;;;;;5050856;28;20021;-78
2021/12/12 05:50:44;;;;;;;94.35;46.13;;;-1.60;99.90;;;;;;5051268;28;20048;-78
2021/12/12 05:53:13;;;;;;;88.38;43.75;;;-1.60;99.90;;;;;;5049645;28;20024;-78
2021/12/12 05:55:39;;;;;;;95.88;43.83;;;-1.60;99.90;;;;;;5049128;28;20070;-77
2021/12/12 05:58:09;;;;;;;90.85;42.13;;;-1.60;99.90;;;;;;5049272;27;20028;-78
2021/12/12 06:00:40;;;;;;;92.65;44.42;;;-1.60;99.90;;;;;;5050410;28;20385;-78
2021/12/12 06:03:12;;;;;;;98.05;47.70;;;-1.60;99.90;;;;;;5049265;27;20029;-78
2021/12/12 06:05:38;;;;;;;93.17;43.30;;;-1.60;99.90;;;;;;5050586;27;20064;-78
2021/12/12 06:08:05;;;;;;;96.80;45.10;;;-1.60;99.90;;;;;;5049114;28;20305;-78
2021/12/12 06:10:36;;;;;;;105.57;48.60;;;-1.60;99.90;;;;;;5048728;28;20374;-78
2021/12/12 06:13:03;;;;;;;98.68;47.00;;;-1.60;99.90;;;;;;5050350;28;20069;-78
2021/12/12 06:15:30;;;;;;;89.95;44.85;;;-1.60;99.90;;;;;;5050069;28;20033;-78
2021/12/12 06:17:57;;;;;;;96.55;44.95;;;-1.60;99.90;;;;;;5048976;28;20061;-78
2021/12/12 06:20:24;;;;;;;99.55;46.17;;;-1.70;99.90;;;;;;5048849;28;20104;-78
2021/12/12 06:22:50;;;;;;;93.38;44.20;;;-1.60;99.90;;;;;;5050158;28;20020;-77
2021/12/12 06:25:16;;;;;;;87.30;41.88;;;-1.70;99.90;;;;;;5048798;28;20029;-78
2021/12/12 06:27:42;;;;;;;94.85;45.30;;;-1.70;99.90;;;;;;5050031;28;20121;-78
2021/12/12 06:30:15;;;;;;;100.30;46.38;;;-1.70;99.90;;;;;;5048687;28;20064;-77
2021/12/12 06:32:43;;;;;;;88.07;42.42;;;-1.70;99.90;;;;;;5049978;28;20021;-77
2021/12/12 06:35:09;;;;;;;92.78;43.15;;;-1.80;99.90;;;;;;5049483;28;20029;-77
2021/12/12 06:37:36;;;;;;;94.18;43.60;;;-1.80;99.90;;;;;;5048896;28;20033;-78
2021/12/12 06:40:05;;;;;;;103.22;45.58;;;-1.90;99.90;;;;;;5049851;28;20029;-78
2021/12/12 06:42:32;;;;;;;96.43;44.88;;;-1.90;99.90;;;;;;5049995;28;20021;-78
2021/12/12 06:44:57;;;;;;;99.82;48.35;;;-1.90;99.90;;;;;;5048850;27;20475;-78
2021/12/12 06:47:23;;;;;;;97.10;46.20;;;-2.00;99.90;;;;;;5048784;28;20021;-78
2021/12/12 06:49:49;;;;;;;104.43;49.10;;;-2.10;99.90;;;;;;5044846;28;20033;-78
2021/12/12 06:52:17;;;;;;;103.38;52.05;;;-2.10;99.90;;;;;;5047586;28;20382;-77
2021/12/12 06:54:45;;;;;;;102.38;47.00;;;-2.10;99.90;;;;;;5053586;28;20048;-78
2021/12/12 06:57:13;;;;;;;108.32;48.92;;;-2.10;99.90;;;;;;5051146;28;20467;-79
2021/12/12 06:59:41;;;;;;;107.90;49.70;;;-2.20;99.90;;;;;;5051952;28;20021;-78
2021/12/12 07:02:08;;;;;;;107.50;50.58;;;-2.20;99.90;;;;;;5053672;28;20047;-78
2021/12/12 07:04:35;;;;;;;114.60;49.35;;;-2.20;99.90;;;;;;5053091;28;20036;-78
2021/12/12 07:07:04;;;;;;;100.00;49.03;;;-2.20;99.90;;;;;;5053112;27;20033;-78
2021/12/12 07:09:30;;;;;;;103.63;50.70;;;-2.20;99.90;;;;;;5110035;27;20493;-78
2021/12/12 07:12:00;;;;;;;119.60;53.08;;;-2.30;99.90;;;;;;5105558;27;20104;-78
2021/12/12 07:14:26;;;;;;;112.35;51.47;;;-2.30;99.90;;;;;;5099065;27;20041;-78
2021/12/12 07:16:55;;;;;;;104.10;48.97;;;-2.30;99.90;;;;;;5109598;27;20055;-78
2021/12/12 07:19:22;;;;;;;106.18;48.95;;;-2.30;99.90;;;;;;5107037;27;20044;-78
2021/12/12 07:21:49;;;;;;;111.93;48.50;;;-2.30;99.90;;;;;;5099666;27;20028;-78
2021/12/12 07:24:16;;;;;;;103.75;48.85;;;-2.30;99.90;;;;;;5106128;27;20105;-77
2021/12/12 07:26:42;;;;;;;113.57;49.35;;;-2.40;99.90;;;;;;5095936;27;20054;-78
2021/12/12 07:29:08;;;;;;;99.53;49.53;;;-2.30;99.90;;;;;;5101104;27;20031;-78
2021/12/12 07:31:37;;;;;;;103.20;51.17;;;-2.40;99.90;;;;;;5157905;27;20479;-78
2021/12/12 07:34:07;;;;;;;113.68;52.70;;;-2.40;99.90;;;;;;5155663;27;20033;-78
2021/12/12 07:36:36;;;;;;;363.08;168.82;;;-2.40;99.90;;;;;;5066979;27;20053;-77
2021/12/12 07:39:09;;;;;;;182.48;86.75;;;-2.40;99.90;;;;;;5051760;27;20396;-78
2021/12/12 07:41:36;;;;;;;175.60;82.28;;;-2.40;99.90;;;;;;5067653;27;20065;-78
2021/12/12 07:44:09;;;;;;;138.32;57.08;;;-2.40;99.90;;;;;;5051411;28;20037;-78
2021/12/12 07:46:37;;;;;;;292.85;73.93;;;-2.40;99.90;;;;;;5051337;28;20065;-78
2021/12/12 07:49:05;;;;;;;155.50;66.43;;;-2.50;99.90;;;;;;5052485;28;20466;-78
2021/12/12 07:51:32;;;;;;;134.35;55.88;;;-2.50;99.90;;;;;;5062193;27;20063;-78
2021/12/12 07:54:02;;;;;;;269.55;71.22;;;-2.50;99.90;;;;;;5097714;27;20029;-78
2021/12/12 07:56:30;;;;;;;163.15;63.05;;;-2.50;99.90;;;;;;5103929;27;20125;-77
2021/12/12 07:58:59;;;;;;;159.45;61.65;;;-2.50;99.90;;;;;;5052510;28;20489;-79
2021/12/12 08:01:25;;;;;;;131.93;54.95;;;-2.50;99.90;;;;;;5052242;28;20397;-78
2021/12/12 08:03:54;;;;;;;123.95;47.85;;;-2.40;99.90;;;;;;5050789;28;20111;-78
2021/12/12 08:06:20;;;;;;;166.27;59.78;;;-2.50;99.90;;;;;;5050972;28;20390;-78
2021/12/12 08:08:47;;;;;;;147.70;64.07;;;-2.50;99.90;;;;;;5051950;28;20109;-77
2021/12/12 08:11:21;;;;;;;202.10;82.35;;;-2.50;99.90;;;;;;5050699;28;20471;-78
2021/12/12 08:13:46;;;;;;;225.27;94.72;;;-2.40;99.90;;;;;;5051715;28;20385;-78
2021/12/12 08:16:14;;;;;;;217.00;91.72;;;-2.30;99.90;;;;;;5052271;28;20037;-78
2021/12/12 08:18:41;;;;;;;176.13;75.28;;;-2.20;99.90;;;;;;5051805;28;20032;-77
2021/12/12 08:21:08;;;;;;;140.88;61.58;;;-2.20;99.90;;;;;;5050734;28;20504;-78
2021/12/12 08:23:35;;;;;;;127.30;57.75;;;-2.10;99.90;;;;;;5050659;28;20014;-78
2021/12/12 08:26:02;;;;;;;121.93;55.42;;;-2.10;99.90;;;;;;5050483;28;20744;-78
2021/12/12 08:28:29;;;;;;;117.38;52.92;;;-2.00;99.90;;;;;;5050455;28;20029;-78
2021/12/12 08:30:56;;;;;;;108.45;50.03;;;-1.80;99.90;;;;;;5051817;28;20017;-78
2021/12/12 08:33:22;;;;;;;107.07;50.63;;;-1.80;99.90;;;;;;5050435;28;20025;-78
2021/12/12 08:35:48;;;;;;;106.97;49.75;;;-1.70;99.90;;;;;;5067402;27;20372;-78
2021/12/12 08:38:15;;;;;;;96.57;45.50;;;-1.60;99.90;;;;;;5156966;27;20030;-78
2021/12/12 08:40:47;;;;;;;97.78;46.13;;;-1.50;99.90;;;;;;5155356;27;20054;-78
2021/12/12 08:43:16;;;;;;;87.75;41.88;;;-1.40;99.90;;;;;;5156930;27;20027;-78
2021/12/12 08:45:52;;;;;;;96.13;44.53;;;-1.30;99.90;;;;;;5156820;27;20030;-78
2021/12/12 08:48:21;;;;;;;99.85;48.47;;;-1.20;99.90;;;;;;5096810;27;20013;-78
2021/12/12 08:50:51;;;;;;;98.38;46.60;;;-1.10;99.90;;;;;;5051411;28;20029;-78
2021/12/12 08:53:18;;;;;;;86.40;40.63;;;-1.10;99.90;;;;;;5050213;28;20021;-78
2021/12/12 08:55:48;;;;;;;91.15;43.70;;;-1.00;99.90;;;;;;5051284;28;20078;-78
2021/12/12 08:58:18;;;;;;;82.80;41.53;;;-0.90;99.90;;;;;;5071818;27;20021;-79
2021/12/12 09:00:55;;;;;;;89.43;42.55;;;-0.80;99.90;;;;;;5097178;27;20023;-78
2021/12/12 09:03:40;;;;;;;78.10;38.95;;;-0.70;99.90;;;;;;5105186;27;20074;-79
2021/12/12 09:06:08;;;;;;;82.25;38.28;;;-0.70;99.90;;;;;;5137471;27;20497;-79
2021/12/12 09:08:37;;;;;;;72.22;36.65;;;-0.70;99.90;;;;;;5154777;27;20071;-78
2021/12/12 09:11:13;;;;;;;75.15;37.10;;;-0.70;99.90;;;;;;5155152;27;20105;-78
2021/12/12 09:13:55;;;;;;;76.22;37.58;;;-0.80;99.90;;;;;;5074148;27;20057;-78
2021/12/12 09:16:34;;;;;;;72.05;34.60;;;-0.80;99.90;;;;;;5048092;28;20028;-79
2021/12/12 09:19:06;;;;;;;80.22;40.10;;;-0.80;99.90;;;;;;5050828;28;20024;-78
2021/12/12 09:21:37;;;;;;;73.07;37.97;;;-0.70;99.90;;;;;;5049578;28;20488;-78
2021/12/12 09:24:13;;;;;;;84.30;41.20;;;-0.70;99.90;;;;;;5048207;28;20056;-78
2021/12/12 09:26:48;;;;;;;76.15;37.33;;;-0.60;99.90;;;;;;5102607;27;20049;-78
2021/12/12 09:29:40;;;;;;;83.45;39.97;;;-0.60;99.90;;;;;;5117989;27;20084;-78
2021/12/12 09:32:12;;;;;;;86.90;38.75;;;-0.60;99.90;;;;;;5049214;28;20009;-78
2021/12/12 09:34:48;;;;;;;78.00;36.20;;;-0.40;99.90;;;;;;5124097;27;20092;-79
2021/12/12 09:37:31;;;;;;;71.10;34.50;;;-0.40;99.90;;;;;;5131500;27;20260;-79
2021/12/12 09:40:01;;;;;;;;;;;-0.30;99.90;;;;;;5133087;27;20027;-78
2021/12/12 09:42:56;;;;;;;72.05;32.92;;;-0.30;99.90;;;;;;5041781;27;19916;-78
2021/12/12 09:45:42;;;;;;;65.25;33.88;;;-0.30;99.90;;;;;;5047218;28;20586;-78
2021/12/12 09:51:14;;;;;;;66.38;33.03;;;-0.30;99.90;;;;;;5048308;28;20412;-78
2021/12/12 09:51:18;;;;;;;63.63;31.08;;;-0.30;99.90;;;;;;5049408;28;20032;-77
2021/12/12 09:54:13;;;;;;;71.80;33.13;;;-0.30;99.90;;;;;;5049676;28;20098;-78
2021/12/12 09:57:02;;;;;;;64.50;30.40;;;-0.20;99.90;;;;;;5046928;27;20082;-78
2021/12/12 09:59:54;;;;;;;59.90;28.80;;;-0.20;99.90;;;;;;5049743;27;20043;-79
2021/12/12 10:02:52;;;;;;;63.30;30.65;;;-0.10;99.90;;;;;;5058424;27;20496;-79
2021/12/12 10:05:41;;;;;;;62.75;29.33;;;0.00;99.90;;;;;;5056069;27;20029;-79
2021/12/12 10:08:30;;;;;;;70.15;32.28;;;0.00;99.90;;;;;;5071685;27;20029;-79
2021/12/12 10:11:26;;;;;;;66.30;31.35;;;0.10;99.90;;;;;;5071200;27;20382;-79
2021/12/12 10:14:18;;;;;;;58.97;30.02;;;0.10;99.90;;;;;;5102693;27;20491;-78
2021/12/12 10:17:08;;;;;;;72.07;33.10;;;0.20;99.90;;;;;;5069521;27;20078;-78
2021/12/12 10:19:43;;;;;;;68.72;31.73;;;0.20;99.90;;;;;;5086357;27;20025;-81
2021/12/12 10:22:30;;;;;;;63.40;31.02;;;0.20;99.90;;;;;;5091514;27;20039;-78
2021/12/12 10:25:09;;;;;;;68.28;34.25;;;0.20;99.90;;;;;;5099936;27;20126;-78
2021/12/12 10:27:43;;;;;;;66.68;32.53;;;0.20;99.90;;;;;;5074649;27;20031;-78
2021/12/12 10:30:26;;;;;;;79.47;38.47;;;0.30;99.90;;;;;;5076612;27;20021;-76
2021/12/12 10:33:06;;;;;;;152.27;66.80;;;0.20;99.90;;;;;;5063536;27;20498;-77
2021/12/12 10:35:44;;;;;;;170.60;72.43;;;0.20;99.90;;;;;;5049674;28;20033;-77
2021/12/12 10:38:18;;;;;;;137.82;58.42;;;0.20;99.90;;;;;;5048683;28;20022;-77
2021/12/12 10:41:03;;;;;;;106.60;46.35;;;0.20;99.90;;;;;;5048291;28;20028;-77
2021/12/12 10:43:49;;;;;;;79.45;36.53;;;0.20;99.90;;;;;;5048320;27;20032;-76
2021/12/12 10:46:38;;;;;;;50.53;23.38;;;0.30;99.90;;;;;;5048437;27;20018;-77
2021/12/12 10:49:21;;;;;;;46.70;22.55;;;0.30;99.90;;;;;;5048527;28;20052;-77
2021/12/12 10:51:54;;;;;;;;;;;0.30;99.90;;;;;;5050146;28;20021;-78
2021/12/12 10:54:28;;;;;;;45.60;22.00;;;0.20;99.90;;;;;;5047950;27;19959;-77
2021/12/12 10:57:15;;;;;;;51.95;24.38;;;0.30;99.90;;;;;;5043801;28;20064;-78
2021/12/12 11:00:00;;;;;;;54.95;25.10;;;0.40;99.90;;;;;;5078226;27;20458;-77
2021/12/12 11:02:32;;;;;;;46.88;22.40;;;0.40;99.90;;;;;;5104088;27;20037;-78
2021/12/12 11:05:18;;;;;;;51.67;22.05;;;0.40;99.90;;;;;;5114946;27;20022;-77
2021/12/12 11:08:14;;;;;;;44.95;22.33;;;0.40;99.90;;;;;;5154288;27;20544;-77
2021/12/12 11:10:42;;;;;;;52.13;26.38;;;0.50;99.90;;;;;;5145680;27;20033;-77
2021/12/12 11:13:17;;;;;;;46.40;22.67;;;0.50;99.90;;;;;;5152860;27;20110;-78
2021/12/12 11:15:51;;;;;;;50.35;23.90;;;0.50;99.90;;;;;;5154475;27;20039;-78
2021/12/12 11:18:19;;;;;;;45.15;24.08;;;0.50;99.90;;;;;;5154137;27;20437;-77
2021/12/12 11:20:55;;;;;;;58.55;25.08;;;0.60;99.90;;;;;;5152914;27;20023;-77
2021/12/12 11:23:29;;;;;;;52.88;27.33;;;0.50;99.90;;;;;;5119450;27;20366;-77
2021/12/12 11:26:11;;;;;;;61.90;26.83;;;0.60;99.90;;;;;;5027640;28;20044;-77
2021/12/12 11:28:48;;;;;;;61.25;28.83;;;0.40;99.90;;;;;;5026888;28;20100;-76
2021/12/12 11:31:15;;;;;;;58.92;30.10;;;0.40;99.90;;;;;;5027673;28;20043;-77
2021/12/12 11:33:45;;;;;;;63.92;29.13;;;0.30;99.90;;;;;;5028467;28;20018;-77
2021/12/12 11:36:13;;;;;;;63.05;30.48;;;0.30;99.90;;;;;;5028924;28;20049;-76
2021/12/12 11:38:40;;;;;;;59.08;29.45;;;0.20;99.90;;;;;;5027291;28;20021;-76
2021/12/12 11:41:09;;;;;;;62.90;27.73;;;0.20;99.90;;;;;;5030465;28;20117;-75
2021/12/12 11:43:39;;;;;;;72.57;33.00;;;0.10;99.90;;;;;;5033318;27;20483;-76
2021/12/12 11:46:20;;;;;;;61.22;30.83;;;0.00;99.90;;;;;;5053446;27;20048;-75
2021/12/12 11:49:07;;;;;;;61.10;27.20;;;0.10;99.90;;;;;;5050187;28;20040;-75
2021/12/12 11:51:43;;;;;;;54.55;26.58;;;0.00;99.90;;;;;;5060672;27;20056;-76
2021/12/12 11:54:20;;;;;;;59.33;29.02;;;0.00;99.90;;;;;;5074619;27;20026;-75
2021/12/12 11:56:59;;;;;;;61.10;28.27;;;0.10;99.90;;;;;;5104725;27;20017;-76
2021/12/12 12:00:03;;;;;;;58.75;27.00;;;0.10;99.90;;;;;;5115055;27;20025;-76
2021/12/12 12:02:51;;;;;;;60.97;29.40;;;0.10;99.90;;;;;;5033768;28;20017;-75
2021/12/12 12:05:37;;;;;;;57.65;26.52;;;0.20;99.90;;;;;;5034548;27;20185;-76
2021/12/12 12:08:06;;;;;;;61.08;27.70;;;0.20;99.90;;;;;;5050504;28;20431;-75
2021/12/12 12:10:49;;;;;;;60.20;28.80;;;0.20;99.90;;;;;;5051372;28;20104;-75
2021/12/12 12:13:54;;;;;;;63.13;28.33;;;0.20;99.90;;;;;;5064117;27;20086;-75
2021/12/12 12:17:04;;;;;;;54.95;25.25;;;0.10;99.90;;;;;;5051360;27;20025;-75
2021/12/12 12:19:47;;;;;;;57.03;25.23;;;0.10;99.90;;;;;;5122755;27;20166;-75
2021/12/12 12:22:34;;;;;;;60.53;27.83;;;0.00;99.90;;;;;;5116968;27;20033;-75
2021/12/12 12:25:18;;;;;;;58.40;25.90;;;0.00;99.90;;;;;;5116239;27;20086;-75
2021/12/12 12:27:53;;;;;;;60.78;27.65;;;0.00;99.90;;;;;;5156485;27;20462;-75
2021/12/12 12:30:31;;;;;;;50.00;25.50;;;0.00;99.90;;;;;;5155640;27;20022;-75
2021/12/12 12:33:12;;;;;;;52.95;25.58;;;0.00;99.90;;;;;;5155529;27;20087;-76
2021/12/12 12:36:15;;;;;;;59.22;28.75;;;0.00;99.90;;;;;;5156673;27;20394;-75
2021/12/12 12:39:03;;;;;;;51.00;27.52;;;0.00;99.90;;;;;;5155435;27;20036;-75
2021/12/12 12:42:25;;;;;;;60.47;28.45;;;0.00;99.90;;;;;;5065975;27;20111;-75
2021/12/12 12:45:36;;;;;;;59.22;29.40;;;0.00;99.90;;;;;;5048293;28;20553;-75
2021/12/12 12:48:33;;;;;;;56.75;27.42;;;0.00;99.90;;;;;;5029502;28;20029;-78
2021/12/12 12:51:08;;;;;;;56.60;27.02;;;0.00;99.90;;;;;;5113906;27;20022;-78
2021/12/12 12:53:52;;;;;;;63.45;30.48;;;0.00;99.90;;;;;;5154981;27;20022;-79
2021/12/12 12:56:39;;;;;;;65.80;32.17;;;0.00;99.90;;;;;;5156210;27;20547;-78
2021/12/12 12:59:36;;;;;;;68.70;31.13;;;0.00;99.90;;;;;;5061605;27;20092;-78
2021/12/12 13:02:13;;;;;;;73.60;31.52;;;0.00;99.90;;;;;;5055653;27;20032;-79
2021/12/12 13:04:58;;;;;;;303.98;118.82;;;0.00;99.90;;;;;;5118957;27;20019;-78
2021/12/12 13:07:41;;;;;;;169.50;68.35;;;0.00;99.90;;;;;;5050648;28;20490;-77
2021/12/12 13:10:21;;;;;;;272.25;112.05;;;0.00;99.90;;;;;;5050453;28;20036;-77
2021/12/12 13:13:06;;;;;;;516.03;233.82;;;-0.20;99.90;;;;;;5066983;27;20047;-78